sensor_id;sensor_type;location;lat;lon;timestamp;P1;durP1;ratioP1;P2;durP2;ratioP2
43419;SDS011;29017;51.514;-0.178;2023-05-10T00:02:13;3.45;;;1.58;;
43419;SDS011;29017;51.514;-0.178;2023-05-10T00:04:40;5.63;;;1.50;;
43419;SDS011;29017;51.514;-0.178;2023-05-10T00:07:07;4.07;;;1.50;;
43419;SDS011;29017;51.514;-0.178;2023-05-10T00:09:35;5.85;;;1.85;;
43419;SDS011;29017;51.514;-0.178;2023-05-10T00:12:05;5.40;;;1.70;;
43419;SDS011;29017;51.514;-0.178;2023-05-10T00:14:32;4.38;;;1.55;;
43419;SDS011;29017;51.514;-0.178;2023-05-10T00:16:59;7.78;;;1.33;;
43419;SDS011;29017;51.514;-0.178;2023-05-10T00:19:26;4.28;;;1.70;;
43419;SDS011;29017;51.514;-0.178;2023-05-10T00:21:53;4.53;;;1.90;;
43419;SDS011;29017;51.514;-0.178;2023-05-10T00:24:20;4.97;;;1.50;;
43419;SDS011;29017;51.514;-0.178;2023-05-10T00:26:47;4.65;;;1.63;;
43419;SDS011;29017;51.514;-0.178;2023-05-10T00:29:15;5.22;;;2.20;;
43419;SDS011;29017;51.514;-0.178;2023-05-10T00:31:42;6.35;;;1.85;;
43419;SDS011;29017;51.514;-0.178;2023-05-10T00:34:09;8.20;;;2.60;;
43419;SDS011;29017;51.514;-0.178;2023-05-10T00:36:36;6.85;;;2.40;;
43419;SDS011;29017;51.514;-0.178;2023-05-10T00:39:03;6.72;;;2.30;;
43419;SDS011;29017;51.514;-0.178;2023-05-10T00:41:31;6.25;;;2.70;;
43419;SDS011;29017;51.514;-0.178;2023-05-10T00:44:02;37.17;;;3.75;;
43419;SDS011;29017;51.514;-0.178;2023-05-10T00:46:30;6.20;;;2.40;;
43419;SDS011;29017;51.514;-0.178;2023-05-10T00:49:00;36.80;;;4.30;;
43419;SDS011;29017;51.514;-0.178;2023-05-10T00:51:29;6.22;;;2.47;;
43419;SDS011;29017;51.514;-0.178;2023-05-10T00:53:57;4.63;;;2.28;;
43419;SDS011;29017;51.514;-0.178;2023-05-10T00:56:25;4.72;;;2.22;;
43419;SDS011;29017;51.514;-0.178;2023-05-10T00:58:53;5.68;;;2.30;;
43419;SDS011;29017;51.514;-0.178;2023-05-10T01:01:20;8.00;;;3.10;;
43419;SDS011;29017;51.514;-0.178;2023-05-10T01:03:47;7.47;;;3.33;;
43419;SDS011;29017;51.514;-0.178;2023-05-10T01:06:14;7.53;;;2.47;;
43419;SDS011;29017;51.514;-0.178;2023-05-10T01:08:41;7.20;;;2.97;;
43419;SDS011;29017;51.514;-0.178;2023-05-10T01:11:09;9.23;;;2.83;;
43419;SDS011;29017;51.514;-0.178;2023-05-10T01:13:38;10.13;;;3.22;;
43419;SDS011;29017;51.514;-0.178;2023-05-10T01:16:08;7.18;;;2.78;;
43419;SDS011;29017;51.514;-0.178;2023-05-10T01:18:36;7.32;;;2.90;;
43419;SDS011;29017;51.514;-0.178;2023-05-10T01:21:11;6.10;;;2.72;;
43419;SDS011;29017;51.514;-0.178;2023-05-10T01:26:44;8.85;;;2.58;;
43419;SDS011;29017;51.514;-0.178;2023-05-10T01:34:42;8.20;;;3.20;;
43419;SDS011;29017;51.514;-0.178;2023-05-10T01:37:20;26.27;;;3.35;;
43419;SDS011;29017;51.514;-0.178;2023-05-10T01:42:29;6.03;;;2.83;;
43419;SDS011;29017;51.514;-0.178;2023-05-10T01:47:43;6.70;;;2.60;;
43419;SDS011;29017;51.514;-0.178;2023-05-10T01:50:19;6.18;;;2.85;;
43419;SDS011;29017;51.514;-0.178;2023-05-10T01:52:56;10.02;;;2.60;;
43419;SDS011;29017;51.514;-0.178;2023-05-10T01:55:27;5.68;;;2.17;;
43419;SDS011;29017;51.514;-0.178;2023-05-10T02:00:40;6.13;;;2.58;;
43419;SDS011;29017;51.514;-0.178;2023-05-10T02:03:09;6.43;;;1.95;;
43419;SDS011;29017;51.514;-0.178;2023-05-10T02:05:38;5.63;;;2.53;;
43419;SDS011;29017;51.514;-0.178;2023-05-10T02:08:07;5.40;;;2.30;;
43419;SDS011;29017;51.514;-0.178;2023-05-10T02:10:35;7.10;;;2.85;;
43419;SDS011;29017;51.514;-0.178;2023-05-10T02:13:03;4.50;;;2.35;;
43419;SDS011;29017;51.514;-0.178;2023-05-10T02:15:33;6.18;;;2.17;;
43419;SDS011;29017;51.514;-0.178;2023-05-10T02:18:01;6.43;;;2.92;;
43419;SDS011;29017;51.514;-0.178;2023-05-10T02:20:30;9.23;;;2.53;;
43419;SDS011;29017;51.514;-0.178;2023-05-10T02:22:58;6.97;;;2.47;;
43419;SDS011;29017;51.514;-0.178;2023-05-10T02:25:27;6.75;;;2.42;;
43419;SDS011;29017;51.514;-0.178;2023-05-10T02:28:01;5.43;;;2.33;;
43419;SDS011;29017;51.514;-0.178;2023-05-10T02:30:31;11.27;;;2.83;;
43419;SDS011;29017;51.514;-0.178;2023-05-10T02:33:01;4.82;;;2.28;;
43419;SDS011;29017;51.514;-0.178;2023-05-10T02:35:30;7.72;;;2.75;;
43419;SDS011;29017;51.514;-0.178;2023-05-10T02:38:00;7.97;;;2.20;;
43419;SDS011;29017;51.514;-0.178;2023-05-10T02:40:28;4.50;;;2.05;;
43419;SDS011;29017;51.514;-0.178;2023-05-10T02:42:56;9.63;;;2.50;;
43419;SDS011;29017;51.514;-0.178;2023-05-10T02:45:26;6.70;;;1.92;;
43419;SDS011;29017;51.514;-0.178;2023-05-10T02:47:59;4.53;;;2.10;;
43419;SDS011;29017;51.514;-0.178;2023-05-10T02:50:27;5.57;;;2.13;;
43419;SDS011;29017;51.514;-0.178;2023-05-10T02:52:59;9.57;;;2.30;;
43419;SDS011;29017;51.514;-0.178;2023-05-10T02:55:32;6.18;;;1.98;;
43419;SDS011;29017;51.514;-0.178;2023-05-10T02:58:02;5.70;;;1.88;;
43419;SDS011;29017;51.514;-0.178;2023-05-10T03:00:30;4.30;;;1.60;;
43419;SDS011;29017;51.514;-0.178;2023-05-10T03:02:57;4.15;;;1.90;;
43419;SDS011;29017;51.514;-0.178;2023-05-10T03:05:25;5.18;;;2.10;;
43419;SDS011;29017;51.514;-0.178;2023-05-10T03:07:52;7.32;;;1.77;;
43419;SDS011;29017;51.514;-0.178;2023-05-10T03:10:21;6.43;;;1.65;;
43419;SDS011;29017;51.514;-0.178;2023-05-10T03:18:28;5.18;;;1.83;;
43419;SDS011;29017;51.514;-0.178;2023-05-10T03:21:01;5.82;;;1.95;;
43419;SDS011;29017;51.514;-0.178;2023-05-10T03:23:34;5.05;;;2.40;;
43419;SDS011;29017;51.514;-0.178;2023-05-10T03:26:07;5.55;;;2.10;;
43419;SDS011;29017;51.514;-0.178;2023-05-10T03:28:34;33.72;;;3.42;;
43419;SDS011;29017;51.514;-0.178;2023-05-10T03:31:02;6.28;;;1.88;;
43419;SDS011;29017;51.514;-0.178;2023-05-10T03:33:32;5.15;;;2.20;;
43419;SDS011;29017;51.514;-0.178;2023-05-10T03:36:04;5.90;;;2.00;;
43419;SDS011;29017;51.514;-0.178;2023-05-10T03:38:31;5.50;;;2.25;;
43419;SDS011;29017;51.514;-0.178;2023-05-10T03:40:58;5.70;;;1.65;;
43419;SDS011;29017;51.514;-0.178;2023-05-10T03:43:25;6.75;;;1.73;;
43419;SDS011;29017;51.514;-0.178;2023-05-10T03:45:52;5.45;;;2.10;;
43419;SDS011;29017;51.514;-0.178;2023-05-10T03:48:19;5.78;;;1.80;;
43419;SDS011;29017;51.514;-0.178;2023-05-10T03:50:46;6.53;;;1.65;;
43419;SDS011;29017;51.514;-0.178;2023-05-10T03:53:13;6.22;;;2.25;;
43419;SDS011;29017;51.514;-0.178;2023-05-10T03:55:40;5.65;;;1.70;;
43419;SDS011;29017;51.514;-0.178;2023-05-10T03:58:10;4.57;;;2.05;;
43419;SDS011;29017;51.514;-0.178;2023-05-10T04:00:38;5.35;;;1.98;;
43419;SDS011;29017;51.514;-0.178;2023-05-10T04:03:10;4.40;;;1.80;;
43419;SDS011;29017;51.514;-0.178;2023-05-10T04:05:38;5.82;;;1.77;;
43419;SDS011;29017;51.514;-0.178;2023-05-10T04:08:06;4.65;;;2.03;;
43419;SDS011;29017;51.514;-0.178;2023-05-10T04:10:36;8.40;;;2.03;;
43419;SDS011;29017;51.514;-0.178;2023-05-10T04:13:03;8.02;;;2.53;;
43419;SDS011;29017;51.514;-0.178;2023-05-10T04:15:30;7.72;;;2.10;;
43419;SDS011;29017;51.514;-0.178;2023-05-10T04:17:57;3.55;;;1.58;;
43419;SDS011;29017;51.514;-0.178;2023-05-10T04:20:24;6.18;;;2.00;;
43419;SDS011;29017;51.514;-0.178;2023-05-10T04:22:52;9.65;;;2.65;;
43419;SDS011;29017;51.514;-0.178;2023-05-10T04:25:19;5.35;;;1.83;;
43419;SDS011;29017;51.514;-0.178;2023-05-10T04:27:46;6.22;;;1.98;;
43419;SDS011;29017;51.514;-0.178;2023-05-10T04:30:13;6.43;;;1.85;;
43419;SDS011;29017;51.514;-0.178;2023-05-10T04:32:41;7.78;;;2.42;;
43419;SDS011;29017;51.514;-0.178;2023-05-10T04:35:11;6.05;;;2.15;;
43419;SDS011;29017;51.514;-0.178;2023-05-10T04:37:38;4.72;;;1.92;;
43419;SDS011;29017;51.514;-0.178;2023-05-10T04:40:06;6.70;;;1.90;;
43419;SDS011;29017;51.514;-0.178;2023-05-10T04:42:34;7.65;;;2.38;;
43419;SDS011;29017;51.514;-0.178;2023-05-10T04:45:01;6.03;;;1.67;;
43419;SDS011;29017;51.514;-0.178;2023-05-10T04:47:29;7.82;;;2.58;;
43419;SDS011;29017;51.514;-0.178;2023-05-10T04:49:57;6.35;;;2.40;;
43419;SDS011;29017;51.514;-0.178;2023-05-10T04:52:25;5.88;;;2.63;;
43419;SDS011;29017;51.514;-0.178;2023-05-10T04:54:52;9.68;;;3.53;;
43419;SDS011;29017;51.514;-0.178;2023-05-10T04:57:20;7.25;;;2.25;;
43419;SDS011;29017;51.514;-0.178;2023-05-10T04:59:47;7.38;;;2.17;;
43419;SDS011;29017;51.514;-0.178;2023-05-10T05:02:15;8.73;;;2.60;;
43419;SDS011;29017;51.514;-0.178;2023-05-10T05:04:43;7.40;;;2.55;;
43419;SDS011;29017;51.514;-0.178;2023-05-10T05:07:10;6.25;;;2.22;;
43419;SDS011;29017;51.514;-0.178;2023-05-10T05:09:38;8.63;;;2.35;;
43419;SDS011;29017;51.514;-0.178;2023-05-10T05:12:05;7.72;;;2.50;;
43419;SDS011;29017;51.514;-0.178;2023-05-10T05:14:32;8.30;;;2.60;;
43419;SDS011;29017;51.514;-0.178;2023-05-10T05:16:59;6.90;;;2.97;;
43419;SDS011;29017;51.514;-0.178;2023-05-10T05:19:26;9.43;;;3.28;;
43419;SDS011;29017;51.514;-0.178;2023-05-10T05:21:55;15.63;;;4.32;;
43419;SDS011;29017;51.514;-0.178;2023-05-10T05:24:22;10.32;;;5.22;;
43419;SDS011;29017;51.514;-0.178;2023-05-10T05:26:49;10.82;;;4.32;;
43419;SDS011;29017;51.514;-0.178;2023-05-10T05:29:16;13.15;;;5.28;;
43419;SDS011;29017;51.514;-0.178;2023-05-10T05:31:43;15.65;;;5.68;;
43419;SDS011;29017;51.514;-0.178;2023-05-10T05:34:11;14.35;;;5.95;;
43419;SDS011;29017;51.514;-0.178;2023-05-10T05:36:38;13.38;;;5.78;;
43419;SDS011;29017;51.514;-0.178;2023-05-10T05:39:05;13.88;;;6.07;;
43419;SDS011;29017;51.514;-0.178;2023-05-10T05:41:33;16.42;;;6.05;;
43419;SDS011;29017;51.514;-0.178;2023-05-10T05:44:05;16.25;;;6.68;;
43419;SDS011;29017;51.514;-0.178;2023-05-10T05:46:32;13.60;;;5.70;;
43419;SDS011;29017;51.514;-0.178;2023-05-10T05:48:59;17.50;;;6.70;;
43419;SDS011;29017;51.514;-0.178;2023-05-10T05:51:26;14.57;;;5.90;;
43419;SDS011;29017;51.514;-0.178;2023-05-10T05:53:53;14.23;;;5.68;;
43419;SDS011;29017;51.514;-0.178;2023-05-10T05:56:20;15.73;;;5.88;;
43419;SDS011;29017;51.514;-0.178;2023-05-10T05:58:51;14.00;;;5.35;;
43419;SDS011;29017;51.514;-0.178;2023-05-10T06:01:18;12.93;;;4.90;;
43419;SDS011;29017;51.514;-0.178;2023-05-10T06:03:45;13.18;;;4.90;;
43419;SDS011;29017;51.514;-0.178;2023-05-10T06:06:12;15.13;;;6.15;;
43419;SDS011;29017;51.514;-0.178;2023-05-10T06:08:40;10.18;;;4.65;;
43419;SDS011;29017;51.514;-0.178;2023-05-10T06:11:07;10.75;;;4.65;;
43419;SDS011;29017;51.514;-0.178;2023-05-10T06:13:35;11.95;;;4.68;;
43419;SDS011;29017;51.514;-0.178;2023-05-10T06:16:05;14.65;;;5.53;;
43419;SDS011;29017;51.514;-0.178;2023-05-10T06:18:33;14.30;;;5.78;;
43419;SDS011;29017;51.514;-0.178;2023-05-10T06:21:01;12.57;;;5.30;;
43419;SDS011;29017;51.514;-0.178;2023-05-10T06:23:29;10.35;;;4.53;;
43419;SDS011;29017;51.514;-0.178;2023-05-10T06:25:57;14.05;;;4.72;;
43419;SDS011;29017;51.514;-0.178;2023-05-10T06:28:24;13.55;;;4.95;;
43419;SDS011;29017;51.514;-0.178;2023-05-10T06:30:51;11.68;;;4.95;;
43419;SDS011;29017;51.514;-0.178;2023-05-10T06:33:18;10.43;;;4.85;;
43419;SDS011;29017;51.514;-0.178;2023-05-10T06:35:45;11.98;;;4.95;;
43419;SDS011;29017;51.514;-0.178;2023-05-10T06:38:12;12.50;;;4.78;;
43419;SDS011;29017;51.514;-0.178;2023-05-10T06:40:41;11.30;;;4.28;;
43419;SDS011;29017;51.514;-0.178;2023-05-10T06:43:09;12.15;;;4.25;;
43419;SDS011;29017;51.514;-0.178;2023-05-10T06:45:37;10.77;;;3.42;;
43419;SDS011;29017;51.514;-0.178;2023-05-10T06:48:04;8.55;;;3.40;;
43419;SDS011;29017;51.514;-0.178;2023-05-10T06:50:32;7.60;;;3.72;;
43419;SDS011;29017;51.514;-0.178;2023-05-10T06:53:02;12.90;;;4.00;;
43419;SDS011;29017;51.514;-0.178;2023-05-10T06:55:30;10.95;;;3.65;;
43419;SDS011;29017;51.514;-0.178;2023-05-10T06:57:58;8.13;;;3.42;;
43419;SDS011;29017;51.514;-0.178;2023-05-10T07:00:25;9.10;;;3.20;;
43419;SDS011;29017;51.514;-0.178;2023-05-10T07:02:52;11.02;;;3.38;;
43419;SDS011;29017;51.514;-0.178;2023-05-10T07:05:19;11.23;;;3.35;;
43419;SDS011;29017;51.514;-0.178;2023-05-10T07:07:47;10.98;;;3.13;;
43419;SDS011;29017;51.514;-0.178;2023-05-10T07:10:14;7.93;;;3.10;;
43419;SDS011;29017;51.514;-0.178;2023-05-10T07:12:41;9.77;;;3.38;;
43419;SDS011;29017;51.514;-0.178;2023-05-10T07:15:09;11.27;;;3.35;;
43419;SDS011;29017;51.514;-0.178;2023-05-10T07:17:37;10.15;;;3.72;;
43419;SDS011;29017;51.514;-0.178;2023-05-10T07:20:08;9.68;;;3.20;;
43419;SDS011;29017;51.514;-0.178;2023-05-10T07:22:36;10.43;;;2.60;;
43419;SDS011;29017;51.514;-0.178;2023-05-10T07:25:03;8.48;;;2.40;;
43419;SDS011;29017;51.514;-0.178;2023-05-10T07:27:30;8.70;;;2.78;;
43419;SDS011;29017;51.514;-0.178;2023-05-10T07:29:57;8.02;;;3.05;;
43419;SDS011;29017;51.514;-0.178;2023-05-10T07:32:25;6.72;;;2.40;;
43419;SDS011;29017;51.514;-0.178;2023-05-10T07:34:53;9.80;;;3.10;;
43419;SDS011;29017;51.514;-0.178;2023-05-10T07:37:20;10.02;;;2.20;;
43419;SDS011;29017;51.514;-0.178;2023-05-10T07:39:47;12.55;;;2.63;;
43419;SDS011;29017;51.514;-0.178;2023-05-10T07:42:14;10.90;;;2.10;;
43419;SDS011;29017;51.514;-0.178;2023-05-10T07:44:41;5.85;;;1.58;;
43419;SDS011;29017;51.514;-0.178;2023-05-10T07:47:09;10.10;;;2.03;;
43419;SDS011;29017;51.514;-0.178;2023-05-10T07:49:37;12.23;;;2.40;;
43419;SDS011;29017;51.514;-0.178;2023-05-10T07:52:05;7.70;;;1.52;;
43419;SDS011;29017;51.514;-0.178;2023-05-10T07:54:32;9.23;;;1.50;;
43419;SDS011;29017;51.514;-0.178;2023-05-10T07:57:00;8.48;;;1.70;;
43419;SDS011;29017;51.514;-0.178;2023-05-10T07:59:28;8.07;;;1.63;;
43419;SDS011;29017;51.514;-0.178;2023-05-10T08:01:57;4.25;;;1.20;;
43419;SDS011;29017;51.514;-0.178;2023-05-10T08:04:24;6.53;;;1.20;;
43419;SDS011;29017;51.514;-0.178;2023-05-10T08:06:51;8.27;;;1.38;;
43419;SDS011;29017;51.514;-0.178;2023-05-10T08:09:18;8.90;;;1.65;;
43419;SDS011;29017;51.514;-0.178;2023-05-10T08:11:50;7.38;;;1.10;;
43419;SDS011;29017;51.514;-0.178;2023-05-10T08:14:18;5.85;;;1.40;;
43419;SDS011;29017;51.514;-0.178;2023-05-10T08:16:45;6.22;;;1.17;;
43419;SDS011;29017;51.514;-0.178;2023-05-10T08:19:12;3.42;;;1.23;;
43419;SDS011;29017;51.514;-0.178;2023-05-10T08:21:45;7.78;;;1.48;;
43419;SDS011;29017;51.514;-0.178;2023-05-10T08:24:12;9.25;;;2.25;;
43419;SDS011;29017;51.514;-0.178;2023-05-10T08:26:40;10.13;;;1.38;;
43419;SDS011;29017;51.514;-0.178;2023-05-10T08:29:07;8.77;;;1.48;;
43419;SDS011;29017;51.514;-0.178;2023-05-10T08:31:34;6.18;;;1.50;;
43419;SDS011;29017;51.514;-0.178;2023-05-10T08:34:01;9.70;;;2.03;;
43419;SDS011;29017;51.514;-0.178;2023-05-10T08:36:29;5.90;;;1.83;;
43419;SDS011;29017;51.514;-0.178;2023-05-10T08:38:56;9.43;;;2.20;;
43419;SDS011;29017;51.514;-0.178;2023-05-10T08:41:23;8.18;;;1.70;;
43419;SDS011;29017;51.514;-0.178;2023-05-10T08:43:55;8.23;;;2.43;;
43419;SDS011;29017;51.514;-0.178;2023-05-10T08:46:22;7.18;;;1.40;;
43419;SDS011;29017;51.514;-0.178;2023-05-10T08:48:50;6.57;;;1.90;;
43419;SDS011;29017;51.514;-0.178;2023-05-10T08:51:19;6.05;;;1.67;;
43419;SDS011;29017;51.514;-0.178;2023-05-10T08:53:50;9.95;;;2.03;;
43419;SDS011;29017;51.514;-0.178;2023-05-10T08:56:17;12.05;;;1.92;;
43419;SDS011;29017;51.514;-0.178;2023-05-10T08:58:47;6.90;;;1.88;;
43419;SDS011;29017;51.514;-0.178;2023-05-10T09:01:15;7.32;;;1.77;;
43419;SDS011;29017;51.514;-0.178;2023-05-10T09:03:43;8.20;;;1.77;;
43419;SDS011;29017;51.514;-0.178;2023-05-10T09:06:14;7.68;;;1.85;;
43419;SDS011;29017;51.514;-0.178;2023-05-10T09:08:42;5.22;;;1.77;;
43419;SDS011;29017;51.514;-0.178;2023-05-10T09:11:11;6.45;;;1.30;;
43419;SDS011;29017;51.514;-0.178;2023-05-10T09:13:39;9.30;;;1.60;;
43419;SDS011;29017;51.514;-0.178;2023-05-10T09:16:06;5.55;;;2.03;;
43419;SDS011;29017;51.514;-0.178;2023-05-10T09:18:47;6.68;;;2.45;;
43419;SDS011;29017;51.514;-0.178;2023-05-10T09:21:16;6.97;;;2.05;;
43419;SDS011;29017;51.514;-0.178;2023-05-10T09:23:44;8.95;;;2.00;;
43419;SDS011;29017;51.514;-0.178;2023-05-10T09:26:14;9.05;;;2.33;;
43419;SDS011;29017;51.514;-0.178;2023-05-10T09:31:20;11.13;;;1.70;;
43419;SDS011;29017;51.514;-0.178;2023-05-10T09:33:48;9.60;;;1.75;;
43419;SDS011;29017;51.514;-0.178;2023-05-10T09:36:16;6.45;;;2.08;;
43419;SDS011;29017;51.514;-0.178;2023-05-10T09:38:45;9.57;;;2.40;;
43419;SDS011;29017;51.514;-0.178;2023-05-10T09:41:16;8.85;;;2.40;;
43419;SDS011;29017;51.514;-0.178;2023-05-10T09:43:48;6.47;;;1.70;;
43419;SDS011;29017;51.514;-0.178;2023-05-10T09:46:16;8.23;;;1.95;;
43419;SDS011;29017;51.514;-0.178;2023-05-10T09:48:44;9.70;;;1.88;;
43419;SDS011;29017;51.514;-0.178;2023-05-10T09:51:21;7.68;;;1.70;;
43419;SDS011;29017;51.514;-0.178;2023-05-10T09:54:08;7.85;;;2.05;;
43419;SDS011;29017;51.514;-0.178;2023-05-10T09:56:37;5.80;;;1.38;;
43419;SDS011;29017;51.514;-0.178;2023-05-10T09:59:08;7.50;;;1.75;;
43419;SDS011;29017;51.514;-0.178;2023-05-10T10:01:38;6.60;;;1.52;;
43419;SDS011;29017;51.514;-0.178;2023-05-10T10:04:06;8.40;;;1.95;;
43419;SDS011;29017;51.514;-0.178;2023-05-10T10:06:35;6.57;;;1.45;;
43419;SDS011;29017;51.514;-0.178;2023-05-10T10:09:05;7.38;;;1.40;;
43419;SDS011;29017;51.514;-0.178;2023-05-10T10:11:36;10.75;;;1.88;;
43419;SDS011;29017;51.514;-0.178;2023-05-10T10:14:05;6.55;;;1.65;;
43419;SDS011;29017;51.514;-0.178;2023-05-10T10:16:32;7.22;;;1.70;;
43419;SDS011;29017;51.514;-0.178;2023-05-10T10:19:00;4.25;;;1.08;;
43419;SDS011;29017;51.514;-0.178;2023-05-10T10:21:27;7.03;;;1.60;;
43419;SDS011;29017;51.514;-0.178;2023-05-10T10:23:58;9.02;;;1.50;;
43419;SDS011;29017;51.514;-0.178;2023-05-10T10:26:25;6.43;;;1.58;;
43419;SDS011;29017;51.514;-0.178;2023-05-10T10:34:22;4.38;;;1.00;;
43419;SDS011;29017;51.514;-0.178;2023-05-10T10:36:56;5.57;;;1.05;;
43419;SDS011;29017;51.514;-0.178;2023-05-10T10:39:25;5.65;;;1.27;;
43419;SDS011;29017;51.514;-0.178;2023-05-10T10:41:54;8.05;;;1.70;;
43419;SDS011;29017;51.514;-0.178;2023-05-10T10:57:24;3.90;;;1.45;;
43419;SDS011;29017;51.514;-0.178;2023-05-10T11:00:17;6.43;;;1.88;;
43419;SDS011;29017;51.514;-0.178;2023-05-10T11:08:07;5.10;;;1.00;;
43419;SDS011;29017;51.514;-0.178;2023-05-10T11:10:36;4.32;;;0.70;;
43419;SDS011;29017;51.514;-0.178;2023-05-10T11:13:06;3.90;;;0.90;;
43419;SDS011;29017;51.514;-0.178;2023-05-10T11:15:36;5.88;;;0.80;;
43419;SDS011;29017;51.514;-0.178;2023-05-10T11:20:51;4.30;;;0.68;;
43419;SDS011;29017;51.514;-0.178;2023-05-10T11:23:22;6.75;;;0.85;;
43419;SDS011;29017;51.514;-0.178;2023-05-10T11:25:49;6.00;;;0.80;;
43419;SDS011;29017;51.514;-0.178;2023-05-10T11:28:17;5.03;;;0.80;;
43419;SDS011;29017;51.514;-0.178;2023-05-10T11:30:46;3.55;;;0.75;;
43419;SDS011;29017;51.514;-0.178;2023-05-10T11:33:14;3.72;;;0.63;;
43419;SDS011;29017;51.514;-0.178;2023-05-10T11:35:44;4.25;;;0.98;;
43419;SDS011;29017;51.514;-0.178;2023-05-10T11:38:12;4.75;;;1.05;;
43419;SDS011;29017;51.514;-0.178;2023-05-10T11:40:40;3.60;;;0.70;;
43419;SDS011;29017;51.514;-0.178;2023-05-10T11:43:08;2.95;;;0.60;;
43419;SDS011;29017;51.514;-0.178;2023-05-10T11:45:38;11.25;;;2.15;;
43419;SDS011;29017;51.514;-0.178;2023-05-10T11:48:07;6.57;;;0.70;;
43419;SDS011;29017;51.514;-0.178;2023-05-10T11:50:35;3.10;;;0.70;;
43419;SDS011;29017;51.514;-0.178;2023-05-10T11:53:02;3.63;;;0.70;;
43419;SDS011;29017;51.514;-0.178;2023-05-10T11:55:33;4.18;;;1.00;;
43419;SDS011;29017;51.514;-0.178;2023-05-10T11:58:00;3.33;;;0.63;;
43419;SDS011;29017;51.514;-0.178;2023-05-10T12:00:30;5.10;;;0.70;;
43419;SDS011;29017;51.514;-0.178;2023-05-10T12:02:59;5.68;;;0.98;;
43419;SDS011;29017;51.514;-0.178;2023-05-10T12:05:28;4.78;;;0.60;;
43419;SDS011;29017;51.514;-0.178;2023-05-10T12:08:10;3.88;;;0.90;;
43419;SDS011;29017;51.514;-0.178;2023-05-10T12:10:39;4.50;;;0.60;;
43419;SDS011;29017;51.514;-0.178;2023-05-10T12:13:10;3.35;;;0.80;;
43419;SDS011;29017;51.514;-0.178;2023-05-10T12:15:41;3.50;;;0.77;;
43419;SDS011;29017;51.514;-0.178;2023-05-10T12:18:09;4.03;;;1.10;;
43419;SDS011;29017;51.514;-0.178;2023-05-10T12:20:37;4.32;;;0.70;;
43419;SDS011;29017;51.514;-0.178;2023-05-10T12:23:05;4.00;;;0.65;;
43419;SDS011;29017;51.514;-0.178;2023-05-10T12:25:36;2.08;;;0.50;;
43419;SDS011;29017;51.514;-0.178;2023-05-10T12:28:07;2.58;;;0.47;;
43419;SDS011;29017;51.514;-0.178;2023-05-10T12:30:35;1.30;;;0.30;;
43419;SDS011;29017;51.514;-0.178;2023-05-10T12:33:08;1.48;;;0.20;;
43419;SDS011;29017;51.514;-0.178;2023-05-10T12:41:02;3.22;;;0.50;;
43419;SDS011;29017;51.514;-0.178;2023-05-10T12:43:31;5.43;;;0.80;;
43419;SDS011;29017;51.514;-0.178;2023-05-10T12:46:03;3.92;;;0.60;;
43419;SDS011;29017;51.514;-0.178;2023-05-10T12:48:32;3.97;;;0.50;;
43419;SDS011;29017;51.514;-0.178;2023-05-10T12:51:00;4.10;;;0.57;;
43419;SDS011;29017;51.514;-0.178;2023-05-10T12:53:29;1.38;;;0.40;;
43419;SDS011;29017;51.514;-0.178;2023-05-10T12:56:01;4.78;;;0.60;;
43419;SDS011;29017;51.514;-0.178;2023-05-10T12:58:28;2.38;;;0.60;;
43419;SDS011;29017;51.514;-0.178;2023-05-10T13:01:01;5.05;;;0.70;;
43419;SDS011;29017;51.514;-0.178;2023-05-10T13:03:29;3.50;;;0.93;;
43419;SDS011;29017;51.514;-0.178;2023-05-10T13:05:57;3.47;;;0.70;;
43419;SDS011;29017;51.514;-0.178;2023-05-10T13:08:24;6.75;;;0.90;;
43419;SDS011;29017;51.514;-0.178;2023-05-10T13:10:52;5.22;;;0.98;;
43419;SDS011;29017;51.514;-0.178;2023-05-10T13:13:19;8.43;;;1.60;;
43419;SDS011;29017;51.514;-0.178;2023-05-10T13:15:46;4.90;;;1.27;;
43419;SDS011;29017;51.514;-0.178;2023-05-10T13:18:13;6.65;;;1.13;;
43419;SDS011;29017;51.514;-0.178;2023-05-10T13:20:41;5.75;;;1.10;;
43419;SDS011;29017;51.514;-0.178;2023-05-10T13:23:09;3.20;;;1.13;;
43419;SDS011;29017;51.514;-0.178;2023-05-10T13:25:38;6.40;;;1.20;;
43419;SDS011;29017;51.514;-0.178;2023-05-10T13:28:05;5.88;;;1.25;;
43419;SDS011;29017;51.514;-0.178;2023-05-10T13:30:32;4.55;;;1.20;;
43419;SDS011;29017;51.514;-0.178;2023-05-10T13:33:00;4.93;;;0.82;;
43419;SDS011;29017;51.514;-0.178;2023-05-10T13:35:27;6.97;;;1.55;;
43419;SDS011;29017;51.514;-0.178;2023-05-10T13:37:54;6.35;;;0.80;;
43419;SDS011;29017;51.514;-0.178;2023-05-10T13:40:24;3.80;;;0.98;;
43419;SDS011;29017;51.514;-0.178;2023-05-10T13:42:51;5.85;;;1.27;;
43419;SDS011;29017;51.514;-0.178;2023-05-10T13:45:19;5.45;;;1.20;;
43419;SDS011;29017;51.514;-0.178;2023-05-10T13:47:46;5.60;;;1.17;;
43419;SDS011;29017;51.514;-0.178;2023-05-10T13:50:13;5.50;;;0.93;;
43419;SDS011;29017;51.514;-0.178;2023-05-10T13:52:41;3.97;;;0.60;;
43419;SDS011;29017;51.514;-0.178;2023-05-10T13:55:08;3.15;;;0.40;;
43419;SDS011;29017;51.514;-0.178;2023-05-10T13:57:36;4.65;;;0.50;;
43419;SDS011;29017;51.514;-0.178;2023-05-10T14:00:05;3.75;;;0.40;;
43419;SDS011;29017;51.514;-0.178;2023-05-10T14:02:34;2.25;;;0.40;;
43419;SDS011;29017;51.514;-0.178;2023-05-10T14:05:01;1.75;;;0.40;;
43419;SDS011;29017;51.514;-0.178;2023-05-10T14:07:30;3.78;;;1.10;;
43419;SDS011;29017;51.514;-0.178;2023-05-10T14:09:58;1.20;;;0.20;;
43419;SDS011;29017;51.514;-0.178;2023-05-10T14:12:25;1.90;;;0.30;;
43419;SDS011;29017;51.514;-0.178;2023-05-10T14:14:52;2.90;;;0.30;;
43419;SDS011;29017;51.514;-0.178;2023-05-10T14:17:19;2.97;;;0.43;;
43419;SDS011;29017;51.514;-0.178;2023-05-10T14:19:46;2.97;;;0.38;;
43419;SDS011;29017;51.514;-0.178;2023-05-10T14:22:13;2.22;;;0.32;;
43419;SDS011;29017;51.514;-0.178;2023-05-10T14:24:40;1.80;;;0.52;;
43419;SDS011;29017;51.514;-0.178;2023-05-10T14:27:07;1.40;;;0.40;;
43419;SDS011;29017;51.514;-0.178;2023-05-10T14:29:36;2.03;;;0.43;;
43419;SDS011;29017;51.514;-0.178;2023-05-10T14:32:04;2.60;;;0.40;;
43419;SDS011;29017;51.514;-0.178;2023-05-10T14:34:32;3.88;;;0.60;;
43419;SDS011;29017;51.514;-0.178;2023-05-10T14:36:59;2.67;;;0.90;;
43419;SDS011;29017;51.514;-0.178;2023-05-10T14:39:26;3.55;;;0.75;;
43419;SDS011;29017;51.514;-0.178;2023-05-10T14:41:57;1.95;;;0.50;;
43419;SDS011;29017;51.514;-0.178;2023-05-10T14:44:25;3.13;;;0.60;;
43419;SDS011;29017;51.514;-0.178;2023-05-10T14:46:52;2.20;;;0.47;;
43419;SDS011;29017;51.514;-0.178;2023-05-10T14:49:19;1.58;;;0.50;;
43419;SDS011;29017;51.514;-0.178;2023-05-10T14:51:49;3.28;;;0.60;;
43419;SDS011;29017;51.514;-0.178;2023-05-10T14:54:16;2.67;;;0.50;;
43419;SDS011;29017;51.514;-0.178;2023-05-10T14:56:43;3.28;;;0.43;;
43419;SDS011;29017;51.514;-0.178;2023-05-10T14:59:12;4.32;;;0.60;;
43419;SDS011;29017;51.514;-0.178;2023-05-10T15:01:42;3.53;;;0.50;;
43419;SDS011;29017;51.514;-0.178;2023-05-10T15:04:10;4.13;;;0.50;;
43419;SDS011;29017;51.514;-0.178;2023-05-10T15:06:40;3.15;;;0.80;;
43419;SDS011;29017;51.514;-0.178;2023-05-10T15:09:07;4.00;;;0.65;;
43419;SDS011;29017;51.514;-0.178;2023-05-10T15:11:36;4.15;;;0.90;;
43419;SDS011;29017;51.514;-0.178;2023-05-10T15:16:35;3.53;;;0.60;;
43419;SDS011;29017;51.514;-0.178;2023-05-10T15:19:02;3.28;;;0.68;;
43419;SDS011;29017;51.514;-0.178;2023-05-10T15:21:29;1.90;;;0.30;;
43419;SDS011;29017;51.514;-0.178;2023-05-10T15:24:05;1.48;;;0.22;;
43419;SDS011;29017;51.514;-0.178;2023-05-10T15:26:32;1.52;;;0.30;;
43419;SDS011;29017;51.514;-0.178;2023-05-10T15:29:00;0.95;;;0.30;;
43419;SDS011;29017;51.514;-0.178;2023-05-10T15:31:27;4.60;;;0.45;;
43419;SDS011;29017;51.514;-0.178;2023-05-10T15:33:57;1.80;;;0.50;;
43419;SDS011;29017;51.514;-0.178;2023-05-10T15:36:26;2.42;;;0.70;;
43419;SDS011;29017;51.514;-0.178;2023-05-10T15:38:54;5.05;;;0.57;;
43419;SDS011;29017;51.514;-0.178;2023-05-10T15:41:22;3.30;;;0.63;;